This is the latest recevied weather packets stored in our database for station/object OK6DJ-6. If no packets are shown the sender has not sent any weather packets the latest 1 day(s).
| Time | Temp. | Humidity | Pressure | Rain* | Wind** | Luminosity | Snow |
|---|---|---|---|---|---|---|---|
| 1788530746 | 31.11° C | 38% | 1013.3 hPa | 0 mm | 0.89 m/s, 0° | - | - |
| 1788530146 | 30.56° C | 39% | 1013.5 hPa | 0 mm | 0.89 m/s, 0° | - | - |
| 1788528946 | 31.67° C | 36% | 1013.8 hPa | 0.25 mm | 0.89 m/s, 0° | - | - |
| 1788528346 | 32.22° C | 37% | 1013.9 hPa | 0.25 mm | 0.89 m/s, 0° | - | - |
| 1788527746 | 32.22° C | 36% | 1014.2 hPa | 0.25 mm | 0.45 m/s, 0° | - | - |
| 1788527146 | 31.67° C | 37% | 1014.4 hPa | 0.25 mm | 0.89 m/s, 0° | - | - |
| 1788526546 | 30.56° C | 38% | 1014.5 hPa | 0.25 mm | 0.89 m/s, 0° | - | - |
| 1788525943 | 30.56° C | 39% | 1014.9 hPa | 0 mm | 1.79 m/s, 0° | - | - |
| 1788525677 | 30° C | 41% | 1014.9 hPa | 0 mm | 0.89 m/s, 0° | - | - |
| 1788525076 | 31.11° C | 38% | 1015 hPa | 0 mm | 0.89 m/s, 0° | - | - |
| 1788524476 | 31.67° C | 37% | 1015.2 hPa | 0 mm | 0.89 m/s, 0° | - | - |
| 1788523876 | 31.11° C | 39% | 1015.3 hPa | 0 mm | 0.89 m/s, 0° | - | - |
| 1788523277 | 33.89° C | 35% | 1015.3 hPa | 0 mm | 0.45 m/s, 0° | - | - |
| 1788522676 | 28.33° C | 45% | 1015.5 hPa | 0 mm | 0.45 m/s, 0° | - | - |
| 1788522076 | 31.67° C | 39% | 1015.6 hPa | 0 mm | 0.89 m/s, 0° | - | - |
| 1788521477 | 31.11° C | 39% | 1015.7 hPa | 0 mm | 0.89 m/s, 0° | - | - |
| 1788520877 | 29.44° C | 43% | 1015.8 hPa | 0 mm | 0.89 m/s, 0° | - | - |
| 1788520277 | 32.22° C | 39% | 1016 hPa | 0 mm | 0.45 m/s, 0° | - | - |
| 1788519676 | 29.44° C | 43% | 1016.1 hPa | 0 mm | 0.89 m/s, 0° | - | - |
| 1788519076 | 26.67° C | 49% | 1016.4 hPa | 0 mm | 0.89 m/s, 0° | - | - |
| 1788518476 | 26.11° C | 52% | 1016.4 hPa | 0 mm | 0.45 m/s, 0° | - | - |
| 1788517276 | 27.78° C | 47% | 1016.8 hPa | 0 mm | 0.89 m/s, 0° | - | - |
| 1788516676 | 25.56° C | 54% | 1016.9 hPa | 0 mm | 0.45 m/s, 0° | - | - |
| 1788516076 | 26.67° C | 53% | 1017 hPa | 0 mm | 0.45 m/s, 0° | - | - |
| 1788515476 | 26.11° C | 55% | 1017.3 hPa | 0 mm | 0.89 m/s, 0° | - | - |
* Rain latest hour (hover to see other rain measurements)
** Current wind speed in m/s (hover to see current wind gust speed)